sensor_id;sensor_type;location;lat;lon;timestamp;P1;durP1;ratioP1;P2;durP2;ratioP2
44145;SDS011;29809;52.432;4.780;2023-06-22T00:01:53;10.30;;;7.85;;
44145;SDS011;29809;52.432;4.780;2023-06-22T00:04:18;9.70;;;8.75;;
44145;SDS011;29809;52.432;4.780;2023-06-22T00:06:44;10.93;;;8.70;;
44145;SDS011;29809;52.432;4.780;2023-06-22T00:09:09;10.70;;;8.38;;
44145;SDS011;29809;52.432;4.780;2023-06-22T00:11:35;9.25;;;8.40;;
44145;SDS011;29809;52.432;4.780;2023-06-22T00:14:01;8.93;;;8.02;;
44145;SDS011;29809;52.432;4.780;2023-06-22T00:16:27;7.90;;;7.07;;
44145;SDS011;29809;52.432;4.780;2023-06-22T00:18:52;8.82;;;7.32;;
44145;SDS011;29809;52.432;4.780;2023-06-22T00:21:18;9.52;;;7.32;;
44145;SDS011;29809;52.432;4.780;2023-06-22T00:23:45;8.85;;;7.25;;
44145;SDS011;29809;52.432;4.780;2023-06-22T00:26:11;7.53;;;6.63;;
44145;SDS011;29809;52.432;4.780;2023-06-22T00:28:36;7.30;;;6.45;;
44145;SDS011;29809;52.432;4.780;2023-06-22T00:31:01;7.43;;;6.45;;
44145;SDS011;29809;52.432;4.780;2023-06-22T00:33:27;8.57;;;7.05;;
44145;SDS011;29809;52.432;4.780;2023-06-22T00:35:53;8.57;;;6.95;;
44145;SDS011;29809;52.432;4.780;2023-06-22T00:38:18;7.55;;;6.68;;
44145;SDS011;29809;52.432;4.780;2023-06-22T00:40:44;6.47;;;5.88;;
44145;SDS011;29809;52.432;4.780;2023-06-22T00:43:09;6.90;;;5.90;;
44145;SDS011;29809;52.432;4.780;2023-06-22T00:45:34;7.35;;;6.30;;
44145;SDS011;29809;52.432;4.780;2023-06-22T00:48:00;8.00;;;7.18;;
44145;SDS011;29809;52.432;4.780;2023-06-22T00:50:27;8.40;;;7.70;;
44145;SDS011;29809;52.432;4.780;2023-06-22T00:52:54;7.75;;;6.63;;
44145;SDS011;29809;52.432;4.780;2023-06-22T00:55:21;8.65;;;7.50;;
44145;SDS011;29809;52.432;4.780;2023-06-22T00:57:47;8.65;;;7.70;;
44145;SDS011;29809;52.432;4.780;2023-06-22T01:00:13;7.78;;;7.07;;
44145;SDS011;29809;52.432;4.780;2023-06-22T01:02:38;8.50;;;7.60;;
44145;SDS011;29809;52.432;4.780;2023-06-22T01:05:04;10.98;;;8.20;;
44145;SDS011;29809;52.432;4.780;2023-06-22T01:09:59;9.57;;;8.32;;
44145;SDS011;29809;52.432;4.780;2023-06-22T01:12:28;12.38;;;9.38;;
44145;SDS011;29809;52.432;4.780;2023-06-22T01:14:58;9.88;;;8.98;;
44145;SDS011;29809;52.432;4.780;2023-06-22T01:17:27;10.10;;;9.02;;
44145;SDS011;29809;52.432;4.780;2023-06-22T01:19:55;9.55;;;8.45;;
44145;SDS011;29809;52.432;4.780;2023-06-22T01:22:25;9.73;;;8.82;;
44145;SDS011;29809;52.432;4.780;2023-06-22T01:30:06;12.25;;;8.38;;
44145;SDS011;29809;52.432;4.780;2023-06-22T01:32:33;11.48;;;8.45;;
44145;SDS011;29809;52.432;4.780;2023-06-22T01:35:00;9.45;;;8.13;;
44145;SDS011;29809;52.432;4.780;2023-06-22T01:37:26;9.40;;;8.50;;
44145;SDS011;29809;52.432;4.780;2023-06-22T01:39:52;10.02;;;9.02;;
44145;SDS011;29809;52.432;4.780;2023-06-22T01:42:18;8.90;;;8.00;;
44145;SDS011;29809;52.432;4.780;2023-06-22T01:44:43;8.98;;;7.88;;
44145;SDS011;29809;52.432;4.780;2023-06-22T01:47:09;9.02;;;8.10;;
44145;SDS011;29809;52.432;4.780;2023-06-22T01:49:35;9.00;;;8.05;;
44145;SDS011;29809;52.432;4.780;2023-06-22T01:52:00;8.48;;;7.47;;
44145;SDS011;29809;52.432;4.780;2023-06-22T01:54:25;7.72;;;6.93;;
44145;SDS011;29809;52.432;4.780;2023-06-22T01:56:51;9.88;;;7.15;;
44145;SDS011;29809;52.432;4.780;2023-06-22T01:59:17;10.60;;;7.75;;
44145;SDS011;29809;52.432;4.780;2023-06-22T02:01:51;9.05;;;8.05;;
44145;SDS011;29809;52.432;4.780;2023-06-22T02:04:24;9.55;;;8.48;;
44145;SDS011;29809;52.432;4.780;2023-06-22T02:06:51;9.45;;;8.48;;
44145;SDS011;29809;52.432;4.780;2023-06-22T02:09:19;10.05;;;8.85;;
44145;SDS011;29809;52.432;4.780;2023-06-22T02:11:45;9.52;;;8.18;;
44145;SDS011;29809;52.432;4.780;2023-06-22T02:14:12;9.25;;;8.13;;
44145;SDS011;29809;52.432;4.780;2023-06-22T02:16:38;8.35;;;7.55;;
44145;SDS011;29809;52.432;4.780;2023-06-22T02:19:03;8.13;;;7.43;;
44145;SDS011;29809;52.432;4.780;2023-06-22T02:21:29;7.03;;;6.35;;
44145;SDS011;29809;52.432;4.780;2023-06-22T02:23:54;9.27;;;7.18;;
44145;SDS011;29809;52.432;4.780;2023-06-22T02:26:20;6.93;;;5.57;;
44145;SDS011;29809;52.432;4.780;2023-06-22T02:28:45;7.38;;;6.00;;
44145;SDS011;29809;52.432;4.780;2023-06-22T02:31:11;7.55;;;4.88;;
44145;SDS011;29809;52.432;4.780;2023-06-22T02:33:36;6.20;;;5.60;;
44145;SDS011;29809;52.432;4.780;2023-06-22T02:36:01;6.70;;;5.70;;
44145;SDS011;29809;52.432;4.780;2023-06-22T02:38:30;6.28;;;4.78;;
44145;SDS011;29809;52.432;4.780;2023-06-22T02:40:59;5.90;;;4.93;;
44145;SDS011;29809;52.432;4.780;2023-06-22T02:43:24;7.50;;;5.57;;
44145;SDS011;29809;52.432;4.780;2023-06-22T02:45:53;5.32;;;4.90;;
44145;SDS011;29809;52.432;4.780;2023-06-22T02:48:18;6.05;;;4.78;;
44145;SDS011;29809;52.432;4.780;2023-06-22T02:50:44;6.55;;;5.43;;
44145;SDS011;29809;52.432;4.780;2023-06-22T02:53:09;6.05;;;4.63;;
44145;SDS011;29809;52.432;4.780;2023-06-22T02:55:34;6.30;;;5.43;;
44145;SDS011;29809;52.432;4.780;2023-06-22T02:57:59;6.03;;;5.18;;
44145;SDS011;29809;52.432;4.780;2023-06-22T03:00:27;6.57;;;4.70;;
44145;SDS011;29809;52.432;4.780;2023-06-22T03:02:55;4.75;;;4.25;;
44145;SDS011;29809;52.432;4.780;2023-06-22T03:05:21;5.32;;;4.50;;
44145;SDS011;29809;52.432;4.780;2023-06-22T03:07:46;4.30;;;3.90;;
44145;SDS011;29809;52.432;4.780;2023-06-22T03:10:12;4.93;;;4.43;;
44145;SDS011;29809;52.432;4.780;2023-06-22T03:12:38;5.38;;;4.88;;
44145;SDS011;29809;52.432;4.780;2023-06-22T03:15:06;6.03;;;4.22;;
44145;SDS011;29809;52.432;4.780;2023-06-22T03:17:32;4.97;;;4.45;;
44145;SDS011;29809;52.432;4.780;2023-06-22T03:19:58;5.18;;;4.32;;
44145;SDS011;29809;52.432;4.780;2023-06-22T03:22:32;5.72;;;4.45;;
44145;SDS011;29809;52.432;4.780;2023-06-22T03:24:57;5.75;;;4.28;;
44145;SDS011;29809;52.432;4.780;2023-06-22T03:27:22;5.20;;;4.32;;
44145;SDS011;29809;52.432;4.780;2023-06-22T03:29:47;4.32;;;3.92;;
44145;SDS011;29809;52.432;4.780;2023-06-22T03:32:13;6.47;;;3.55;;
44145;SDS011;29809;52.432;4.780;2023-06-22T03:34:38;4.32;;;3.92;;
44145;SDS011;29809;52.432;4.780;2023-06-22T03:37:03;6.18;;;3.53;;
44145;SDS011;29809;52.432;4.780;2023-06-22T03:39:29;3.90;;;3.58;;
44145;SDS011;29809;52.432;4.780;2023-06-22T03:41:54;4.80;;;3.42;;
44145;SDS011;29809;52.432;4.780;2023-06-22T03:44:19;3.53;;;3.22;;
44145;SDS011;29809;52.432;4.780;2023-06-22T03:46:44;3.60;;;3.30;;
44145;SDS011;29809;52.432;4.780;2023-06-22T03:49:10;4.20;;;3.80;;
44145;SDS011;29809;52.432;4.780;2023-06-22T03:51:35;4.07;;;3.75;;
44145;SDS011;29809;52.432;4.780;2023-06-22T03:54:00;4.78;;;4.13;;
44145;SDS011;29809;52.432;4.780;2023-06-22T03:56:26;4.72;;;4.30;;
44145;SDS011;29809;52.432;4.780;2023-06-22T03:58:51;5.60;;;5.10;;
44145;SDS011;29809;52.432;4.780;2023-06-22T04:01:16;5.10;;;4.70;;
44145;SDS011;29809;52.432;4.780;2023-06-22T04:03:42;6.90;;;5.97;;
44145;SDS011;29809;52.432;4.780;2023-06-22T04:06:07;8.13;;;6.47;;
44145;SDS011;29809;52.432;4.780;2023-06-22T04:08:33;9.45;;;5.72;;
44145;SDS011;29809;52.432;4.780;2023-06-22T04:10:58;8.02;;;7.20;;
44145;SDS011;29809;52.432;4.780;2023-06-22T04:13:23;8.05;;;7.03;;
44145;SDS011;29809;52.432;4.780;2023-06-22T04:15:48;8.00;;;6.90;;
44145;SDS011;29809;52.432;4.780;2023-06-22T04:18:14;7.82;;;7.00;;
44145;SDS011;29809;52.432;4.780;2023-06-22T04:20:39;10.25;;;8.70;;
44145;SDS011;29809;52.432;4.780;2023-06-22T04:23:04;10.00;;;8.85;;
44145;SDS011;29809;52.432;4.780;2023-06-22T04:25:30;10.32;;;8.82;;
44145;SDS011;29809;52.432;4.780;2023-06-22T04:27:55;10.18;;;8.68;;
44145;SDS011;29809;52.432;4.780;2023-06-22T04:30:20;10.70;;;9.60;;
44145;SDS011;29809;52.432;4.780;2023-06-22T04:32:45;11.75;;;9.88;;
44145;SDS011;29809;52.432;4.780;2023-06-22T04:35:21;11.38;;;10.18;;
44145;SDS011;29809;52.432;4.780;2023-06-22T04:37:47;12.73;;;10.60;;
44145;SDS011;29809;52.432;4.780;2023-06-22T04:40:14;11.15;;;10.00;;
44145;SDS011;29809;52.432;4.780;2023-06-22T04:42:40;10.98;;;9.52;;
44145;SDS011;29809;52.432;4.780;2023-06-22T04:45:05;13.77;;;11.07;;
44145;SDS011;29809;52.432;4.780;2023-06-22T04:47:30;11.88;;;10.23;;
44145;SDS011;29809;52.432;4.780;2023-06-22T04:49:56;11.68;;;10.48;;
44145;SDS011;29809;52.432;4.780;2023-06-22T04:52:21;13.23;;;10.85;;
44145;SDS011;29809;52.432;4.780;2023-06-22T04:54:46;13.18;;;11.27;;
44145;SDS011;29809;52.432;4.780;2023-06-22T04:57:20;12.55;;;11.30;;
44145;SDS011;29809;52.432;4.780;2023-06-22T04:59:45;13.15;;;11.63;;
44145;SDS011;29809;52.432;4.780;2023-06-22T05:02:10;13.20;;;11.40;;
44145;SDS011;29809;52.432;4.780;2023-06-22T05:04:36;14.10;;;11.13;;
44145;SDS011;29809;52.432;4.780;2023-06-22T05:07:03;13.65;;;12.18;;
44145;SDS011;29809;52.432;4.780;2023-06-22T05:09:29;183.95;;;58.30;;
44145;SDS011;29809;52.432;4.780;2023-06-22T05:11:54;95.00;;;38.63;;
44145;SDS011;29809;52.432;4.780;2023-06-22T05:14:21;99.68;;;38.03;;
44145;SDS011;29809;52.432;4.780;2023-06-22T05:16:46;63.55;;;29.35;;
44145;SDS011;29809;52.432;4.780;2023-06-22T05:19:12;59.10;;;27.02;;
44145;SDS011;29809;52.432;4.780;2023-06-22T05:21:37;44.70;;;23.95;;
44145;SDS011;29809;52.432;4.780;2023-06-22T05:24:03;42.55;;;22.10;;
44145;SDS011;29809;52.432;4.780;2023-06-22T05:26:29;32.28;;;18.52;;
44145;SDS011;29809;52.432;4.780;2023-06-22T05:28:55;31.90;;;18.20;;
44145;SDS011;29809;52.432;4.780;2023-06-22T05:31:20;26.05;;;17.67;;
44145;SDS011;29809;52.432;4.780;2023-06-22T05:33:46;26.10;;;16.92;;
44145;SDS011;29809;52.432;4.780;2023-06-22T05:36:12;19.35;;;15.05;;
44145;SDS011;29809;52.432;4.780;2023-06-22T05:38:37;21.17;;;13.52;;
44145;SDS011;29809;52.432;4.780;2023-06-22T05:41:03;18.77;;;14.05;;
44145;SDS011;29809;52.432;4.780;2023-06-22T05:43:28;20.35;;;12.65;;
44145;SDS011;29809;52.432;4.780;2023-06-22T05:45:53;17.65;;;13.55;;
44145;SDS011;29809;52.432;4.780;2023-06-22T05:48:19;15.27;;;12.80;;
44145;SDS011;29809;52.432;4.780;2023-06-22T05:50:44;14.07;;;11.13;;
44145;SDS011;29809;52.432;4.780;2023-06-22T05:53:10;16.45;;;11.18;;
44145;SDS011;29809;52.432;4.780;2023-06-22T05:55:35;17.05;;;10.85;;
44145;SDS011;29809;52.432;4.780;2023-06-22T05:58:00;12.05;;;10.80;;
44145;SDS011;29809;52.432;4.780;2023-06-22T06:00:26;14.00;;;10.57;;
44145;SDS011;29809;52.432;4.780;2023-06-22T06:02:51;13.82;;;10.55;;
44145;SDS011;29809;52.432;4.780;2023-06-22T06:05:16;17.23;;;11.32;;
44145;SDS011;29809;52.432;4.780;2023-06-22T06:07:42;13.40;;;10.88;;
44145;SDS011;29809;52.432;4.780;2023-06-22T06:10:07;11.02;;;9.93;;
44145;SDS011;29809;52.432;4.780;2023-06-22T06:12:33;12.60;;;10.75;;
44145;SDS011;29809;52.432;4.780;2023-06-22T06:14:58;13.57;;;12.18;;
44145;SDS011;29809;52.432;4.780;2023-06-22T06:17:23;13.52;;;11.90;;
44145;SDS011;29809;52.432;4.780;2023-06-22T06:19:48;14.25;;;12.60;;
44145;SDS011;29809;52.432;4.780;2023-06-22T06:22:14;14.05;;;11.77;;
44145;SDS011;29809;52.432;4.780;2023-06-22T06:24:42;18.10;;;13.13;;
44145;SDS011;29809;52.432;4.780;2023-06-22T06:27:07;15.02;;;13.02;;
44145;SDS011;29809;52.432;4.780;2023-06-22T06:29:33;15.52;;;12.40;;
44145;SDS011;29809;52.432;4.780;2023-06-22T06:31:58;14.23;;;12.63;;
44145;SDS011;29809;52.432;4.780;2023-06-22T06:34:23;14.85;;;12.85;;
44145;SDS011;29809;52.432;4.780;2023-06-22T06:36:48;13.45;;;11.18;;
44145;SDS011;29809;52.432;4.780;2023-06-22T06:39:14;11.75;;;10.32;;
44145;SDS011;29809;52.432;4.780;2023-06-22T06:41:41;14.60;;;11.20;;
44145;SDS011;29809;52.432;4.780;2023-06-22T06:44:06;12.23;;;10.55;;
44145;SDS011;29809;52.432;4.780;2023-06-22T06:46:31;12.90;;;11.02;;
44145;SDS011;29809;52.432;4.780;2023-06-22T06:48:56;14.57;;;12.10;;
44145;SDS011;29809;52.432;4.780;2023-06-22T06:51:22;12.90;;;10.43;;
44145;SDS011;29809;52.432;4.780;2023-06-22T06:53:47;15.40;;;12.07;;
44145;SDS011;29809;52.432;4.780;2023-06-22T06:56:12;14.27;;;10.85;;
44145;SDS011;29809;52.432;4.780;2023-06-22T06:58:40;11.25;;;10.05;;
44145;SDS011;29809;52.432;4.780;2023-06-22T07:01:05;14.50;;;11.18;;
44145;SDS011;29809;52.432;4.780;2023-06-22T07:03:31;10.85;;;9.50;;
44145;SDS011;29809;52.432;4.780;2023-06-22T07:05:58;12.43;;;10.23;;
44145;SDS011;29809;52.432;4.780;2023-06-22T07:08:26;10.15;;;8.52;;
44145;SDS011;29809;52.432;4.780;2023-06-22T07:10:54;14.27;;;9.98;;
44145;SDS011;29809;52.432;4.780;2023-06-22T07:13:19;9.38;;;8.38;;
44145;SDS011;29809;52.432;4.780;2023-06-22T07:15:45;11.45;;;9.35;;
44145;SDS011;29809;52.432;4.780;2023-06-22T07:18:10;11.95;;;8.55;;
44145;SDS011;29809;52.432;4.780;2023-06-22T07:20:35;14.00;;;11.02;;
44145;SDS011;29809;52.432;4.780;2023-06-22T07:23:01;12.50;;;10.65;;
44145;SDS011;29809;52.432;4.780;2023-06-22T07:25:26;13.75;;;11.55;;
44145;SDS011;29809;52.432;4.780;2023-06-22T07:30:22;13.50;;;12.05;;
44145;SDS011;29809;52.432;4.780;2023-06-22T07:32:48;15.50;;;12.23;;
44145;SDS011;29809;52.432;4.780;2023-06-22T07:35:13;13.38;;;11.98;;
44145;SDS011;29809;52.432;4.780;2023-06-22T07:37:38;12.80;;;10.60;;
44145;SDS011;29809;52.432;4.780;2023-06-22T07:40:04;13.48;;;11.88;;
44145;SDS011;29809;52.432;4.780;2023-06-22T07:42:31;13.95;;;11.85;;
44145;SDS011;29809;52.432;4.780;2023-06-22T07:44:57;14.43;;;12.57;;
44145;SDS011;29809;52.432;4.780;2023-06-22T07:47:23;13.48;;;12.07;;
44145;SDS011;29809;52.432;4.780;2023-06-22T07:49:50;14.65;;;13.10;;
44145;SDS011;29809;52.432;4.780;2023-06-22T07:52:16;16.95;;;14.65;;
44145;SDS011;29809;52.432;4.780;2023-06-22T07:54:41;16.23;;;14.50;;
44145;SDS011;29809;52.432;4.780;2023-06-22T07:57:06;18.80;;;16.05;;
44145;SDS011;29809;52.432;4.780;2023-06-22T07:59:32;22.10;;;17.55;;
44145;SDS011;29809;52.432;4.780;2023-06-22T08:01:57;18.65;;;16.67;;
44145;SDS011;29809;52.432;4.780;2023-06-22T08:04:23;19.42;;;17.52;;
44145;SDS011;29809;52.432;4.780;2023-06-22T08:06:48;20.25;;;18.15;;
44145;SDS011;29809;52.432;4.780;2023-06-22T08:09:14;18.30;;;16.45;;
44145;SDS011;29809;52.432;4.780;2023-06-22T08:11:39;17.20;;;15.50;;
44145;SDS011;29809;52.432;4.780;2023-06-22T08:14:05;17.17;;;15.48;;
44145;SDS011;29809;52.432;4.780;2023-06-22T08:16:30;15.38;;;13.88;;
44145;SDS011;29809;52.432;4.780;2023-06-22T08:18:55;15.98;;;13.45;;
44145;SDS011;29809;52.432;4.780;2023-06-22T08:21:21;14.00;;;12.57;;
44145;SDS011;29809;52.432;4.780;2023-06-22T08:23:47;12.73;;;11.15;;
44145;SDS011;29809;52.432;4.780;2023-06-22T08:26:12;12.82;;;11.32;;
44145;SDS011;29809;52.432;4.780;2023-06-22T08:28:38;12.05;;;10.85;;
44145;SDS011;29809;52.432;4.780;2023-06-22T08:31:03;11.80;;;10.60;;
44145;SDS011;29809;52.432;4.780;2023-06-22T08:33:29;11.93;;;10.73;;
44145;SDS011;29809;52.432;4.780;2023-06-22T08:35:55;11.20;;;10.02;;
44145;SDS011;29809;52.432;4.780;2023-06-22T08:38:20;10.32;;;8.40;;
44145;SDS011;29809;52.432;4.780;2023-06-22T08:40:46;12.52;;;9.10;;
44145;SDS011;29809;52.432;4.780;2023-06-22T08:43:12;12.02;;;9.75;;
44145;SDS011;29809;52.432;4.780;2023-06-22T08:45:37;10.68;;;9.60;;
44145;SDS011;29809;52.432;4.780;2023-06-22T08:48:02;12.07;;;9.65;;
44145;SDS011;29809;52.432;4.780;2023-06-22T08:50:28;9.20;;;8.07;;
44145;SDS011;29809;52.432;4.780;2023-06-22T08:52:53;11.95;;;9.65;;
44145;SDS011;29809;52.432;4.780;2023-06-22T08:55:21;10.23;;;8.23;;
44145;SDS011;29809;52.432;4.780;2023-06-22T08:57:46;13.65;;;9.98;;
44145;SDS011;29809;52.432;4.780;2023-06-22T09:00:12;9.38;;;8.32;;
44145;SDS011;29809;52.432;4.780;2023-06-22T09:02:43;11.05;;;9.43;;
44145;SDS011;29809;52.432;4.780;2023-06-22T09:05:08;10.48;;;8.75;;
44145;SDS011;29809;52.432;4.780;2023-06-22T09:07:33;11.82;;;8.35;;
44145;SDS011;29809;52.432;4.780;2023-06-22T09:09:59;9.95;;;8.38;;
44145;SDS011;29809;52.432;4.780;2023-06-22T09:12:24;9.38;;;8.35;;
44145;SDS011;29809;52.432;4.780;2023-06-22T09:14:52;12.13;;;8.82;;
44145;SDS011;29809;52.432;4.780;2023-06-22T09:17:18;10.88;;;8.43;;
44145;SDS011;29809;52.432;4.780;2023-06-22T09:19:43;9.93;;;8.80;;
44145;SDS011;29809;52.432;4.780;2023-06-22T09:22:08;13.27;;;11.95;;
44145;SDS011;29809;52.432;4.780;2023-06-22T09:24:33;14.10;;;12.45;;
44145;SDS011;29809;52.432;4.780;2023-06-22T09:26:59;16.58;;;14.00;;
44145;SDS011;29809;52.432;4.780;2023-06-22T09:29:24;15.38;;;13.75;;
44145;SDS011;29809;52.432;4.780;2023-06-22T09:31:49;14.40;;;12.90;;
44145;SDS011;29809;52.432;4.780;2023-06-22T09:34:14;12.75;;;11.45;;
44145;SDS011;29809;52.432;4.780;2023-06-22T09:36:41;14.95;;;12.32;;
44145;SDS011;29809;52.432;4.780;2023-06-22T09:39:06;12.05;;;10.63;;
44145;SDS011;29809;52.432;4.780;2023-06-22T09:41:31;15.27;;;11.00;;
44145;SDS011;29809;52.432;4.780;2023-06-22T09:43:57;15.60;;;14.10;;
44145;SDS011;29809;52.432;4.780;2023-06-22T09:46:22;16.88;;;12.60;;
44145;SDS011;29809;52.432;4.780;2023-06-22T09:48:50;17.10;;;13.73;;
44145;SDS011;29809;52.432;4.780;2023-06-22T09:51:15;15.13;;;11.93;;
44145;SDS011;29809;52.432;4.780;2023-06-22T09:53:41;15.75;;;14.07;;
44145;SDS011;29809;52.432;4.780;2023-06-22T09:56:06;12.55;;;11.27;;
44145;SDS011;29809;52.432;4.780;2023-06-22T09:58:31;12.00;;;10.80;;
44145;SDS011;29809;52.432;4.780;2023-06-22T10:00:57;12.65;;;11.38;;
44145;SDS011;29809;52.432;4.780;2023-06-22T10:03:22;12.20;;;10.65;;
44145;SDS011;29809;52.432;4.780;2023-06-22T10:05:47;12.20;;;10.55;;
44145;SDS011;29809;52.432;4.780;2023-06-22T10:08:13;12.32;;;9.15;;
44145;SDS011;29809;52.432;4.780;2023-06-22T10:10:38;10.07;;;8.93;;
44145;SDS011;29809;52.432;4.780;2023-06-22T10:13:08;11.25;;;8.63;;
44145;SDS011;29809;52.432;4.780;2023-06-22T10:15:36;10.38;;;8.35;;
44145;SDS011;29809;52.432;4.780;2023-06-22T10:18:02;10.13;;;8.70;;
44145;SDS011;29809;52.432;4.780;2023-06-22T10:20:27;12.77;;;9.68;;
44145;SDS011;29809;52.432;4.780;2023-06-22T10:22:53;12.85;;;8.75;;
44145;SDS011;29809;52.432;4.780;2023-06-22T10:25:18;12.57;;;9.45;;
44145;SDS011;29809;52.432;4.780;2023-06-22T10:27:44;10.05;;;8.23;;
44145;SDS011;29809;52.432;4.780;2023-06-22T10:30:09;9.57;;;7.68;;
44145;SDS011;29809;52.432;4.780;2023-06-22T10:32:35;9.07;;;8.20;;
44145;SDS011;29809;52.432;4.780;2023-06-22T10:35:01;11.00;;;8.40;;
44145;SDS011;29809;52.432;4.780;2023-06-22T10:37:27;11.13;;;8.50;;
44145;SDS011;29809;52.432;4.780;2023-06-22T10:39:52;8.82;;;7.88;;
44145;SDS011;29809;52.432;4.780;2023-06-22T10:42:20;10.02;;;8.20;;
44145;SDS011;29809;52.432;4.780;2023-06-22T10:44:46;9.30;;;8.18;;
44145;SDS011;29809;52.432;4.780;2023-06-22T10:47:11;10.23;;;8.43;;
44145;SDS011;29809;52.432;4.780;2023-06-22T10:49:39;10.60;;;7.95;;
44145;SDS011;29809;52.432;4.780;2023-06-22T10:52:06;9.57;;;8.35;;
44145;SDS011;29809;52.432;4.780;2023-06-22T10:54:32;10.13;;;8.20;;
44145;SDS011;29809;52.432;4.780;2023-06-22T10:56:58;9.30;;;8.05;;
44145;SDS011;29809;52.432;4.780;2023-06-22T10:59:23;9.27;;;7.95;;
44145;SDS011;29809;52.432;4.780;2023-06-22T11:01:50;11.45;;;10.30;;
44145;SDS011;29809;52.432;4.780;2023-06-22T11:04:16;9.88;;;8.88;;
44145;SDS011;29809;52.432;4.780;2023-06-22T11:06:42;11.65;;;9.32;;
44145;SDS011;29809;52.432;4.780;2023-06-22T11:09:07;11.73;;;9.27;;
44145;SDS011;29809;52.432;4.780;2023-06-22T11:11:33;9.10;;;8.02;;
44145;SDS011;29809;52.432;4.780;2023-06-22T11:13:58;10.90;;;9.35;;
44145;SDS011;29809;52.432;4.780;2023-06-22T11:16:23;10.68;;;9.15;;
44145;SDS011;29809;52.432;4.780;2023-06-22T11:18:48;10.73;;;8.40;;
44145;SDS011;29809;52.432;4.780;2023-06-22T11:21:14;10.32;;;8.68;;
44145;SDS011;29809;52.432;4.780;2023-06-22T11:23:39;10.30;;;9.30;;
44145;SDS011;29809;52.432;4.780;2023-06-22T11:26:04;10.93;;;9.27;;
44145;SDS011;29809;52.432;4.780;2023-06-22T11:28:30;10.13;;;8.90;;
44145;SDS011;29809;52.432;4.780;2023-06-22T11:30:55;10.05;;;8.75;;
44145;SDS011;29809;52.432;4.780;2023-06-22T11:33:20;11.25;;;10.02;;
44145;SDS011;29809;52.432;4.780;2023-06-22T11:35:45;10.70;;;9.45;;
44145;SDS011;29809;52.432;4.780;2023-06-22T11:38:11;11.23;;;10.05;;
44145;SDS011;29809;52.432;4.780;2023-06-22T11:40:36;11.63;;;10.18;;
44145;SDS011;29809;52.432;4.780;2023-06-22T11:43:01;11.63;;;10.05;;
44145;SDS011;29809;52.432;4.780;2023-06-22T11:45:26;9.95;;;8.85;;
44145;SDS011;29809;52.432;4.780;2023-06-22T11:47:52;11.57;;;10.38;;
44145;SDS011;29809;52.432;4.780;2023-06-22T11:50:17;12.10;;;10.13;;
44145;SDS011;29809;52.432;4.780;2023-06-22T11:52:42;13.35;;;10.77;;
44145;SDS011;29809;52.432;4.780;2023-06-22T11:55:08;12.20;;;9.05;;
44145;SDS011;29809;52.432;4.780;2023-06-22T11:57:34;10.32;;;9.07;;
44145;SDS011;29809;52.432;4.780;2023-06-22T12:00:00;10.52;;;9.40;;
44145;SDS011;29809;52.432;4.780;2023-06-22T12:02:25;10.38;;;8.57;;
44145;SDS011;29809;52.432;4.780;2023-06-22T12:04:50;9.43;;;8.50;;
44145;SDS011;29809;52.432;4.780;2023-06-22T12:07:17;12.23;;;9.20;;
44145;SDS011;29809;52.432;4.780;2023-06-22T12:09:42;10.82;;;9.52;;
44145;SDS011;29809;52.432;4.780;2023-06-22T12:12:09;10.95;;;8.35;;
44145;SDS011;29809;52.432;4.780;2023-06-22T12:14:34;8.95;;;7.80;;
44145;SDS011;29809;52.432;4.780;2023-06-22T12:16:59;12.23;;;8.38;;
44145;SDS011;29809;52.432;4.780;2023-06-22T12:19:24;15.35;;;9.00;;
44145;SDS011;29809;52.432;4.780;2023-06-22T12:21:52;9.23;;;8.32;;
44145;SDS011;29809;52.432;4.780;2023-06-22T12:24:17;8.65;;;7.75;;
44145;SDS011;29809;52.432;4.780;2023-06-22T12:26:43;8.80;;;7.82;;
44145;SDS011;29809;52.432;4.780;2023-06-22T12:29:09;9.60;;;8.60;;
44145;SDS011;29809;52.432;4.780;2023-06-22T12:31:35;9.65;;;8.68;;
44145;SDS011;29809;52.432;4.780;2023-06-22T12:34:00;10.27;;;8.30;;
44145;SDS011;29809;52.432;4.780;2023-06-22T12:36:25;11.32;;;8.73;;
44145;SDS011;29809;52.432;4.780;2023-06-22T12:38:51;9.18;;;8.10;;
44145;SDS011;29809;52.432;4.780;2023-06-22T12:41:16;9.93;;;7.47;;
44145;SDS011;29809;52.432;4.780;2023-06-22T12:43:42;9.68;;;8.38;;
44145;SDS011;29809;52.432;4.780;2023-06-22T12:46:07;10.25;;;7.38;;
44145;SDS011;29809;52.432;4.780;2023-06-22T12:48:32;11.30;;;7.97;;
44145;SDS011;29809;52.432;4.780;2023-06-22T12:50:57;9.05;;;7.75;;
44145;SDS011;29809;52.432;4.780;2023-06-22T12:53:23;10.48;;;7.70;;
44145;SDS011;29809;52.432;4.780;2023-06-22T12:55:48;8.48;;;7.25;;
44145;SDS011;29809;52.432;4.780;2023-06-22T12:58:14;7.85;;;7.05;;
44145;SDS011;29809;52.432;4.780;2023-06-22T13:00:39;9.60;;;7.65;;
44145;SDS011;29809;52.432;4.780;2023-06-22T13:03:04;8.85;;;7.95;;
44145;SDS011;29809;52.432;4.780;2023-06-22T13:05:29;9.48;;;8.48;;
44145;SDS011;29809;52.432;4.780;2023-06-22T13:07:55;10.52;;;9.43;;
44145;SDS011;29809;52.432;4.780;2023-06-22T13:10:21;10.10;;;8.95;;
44145;SDS011;29809;52.432;4.780;2023-06-22T13:12:46;9.38;;;8.23;;
44145;SDS011;29809;52.432;4.780;2023-06-22T13:15:11;9.73;;;8.80;;
44145;SDS011;29809;52.432;4.780;2023-06-22T13:17:36;10.15;;;9.00;;
44145;SDS011;29809;52.432;4.780;2023-06-22T13:20:02;11.20;;;8.95;;
44145;SDS011;29809;52.432;4.780;2023-06-22T13:22:33;9.80;;;8.68;;
44145;SDS011;29809;52.432;4.780;2023-06-22T13:25:04;10.98;;;9.40;;
44145;SDS011;29809;52.432;4.780;2023-06-22T13:27:30;10.70;;;7.80;;
44145;SDS011;29809;52.432;4.780;2023-06-22T13:29:55;8.55;;;7.40;;
44145;SDS011;29809;52.432;4.780;2023-06-22T13:32:20;8.77;;;7.22;;
44145;SDS011;29809;52.432;4.780;2023-06-22T13:34:46;10.68;;;7.55;;
44145;SDS011;29809;52.432;4.780;2023-06-22T13:37:11;9.25;;;7.05;;
44145;SDS011;29809;52.432;4.780;2023-06-22T13:39:36;9.93;;;6.72;;
44145;SDS011;29809;52.432;4.780;2023-06-22T13:42:02;7.88;;;6.93;;
44145;SDS011;29809;52.432;4.780;2023-06-22T13:44:27;7.07;;;6.00;;
44145;SDS011;29809;52.432;4.780;2023-06-22T13:46:56;7.25;;;6.47;;
44145;SDS011;29809;52.432;4.780;2023-06-22T13:49:21;7.95;;;5.47;;
44145;SDS011;29809;52.432;4.780;2023-06-22T13:51:47;7.20;;;5.93;;
44145;SDS011;29809;52.432;4.780;2023-06-22T13:54:13;6.38;;;5.43;;
44145;SDS011;29809;52.432;4.780;2023-06-22T13:56:38;7.30;;;5.38;;
44145;SDS011;29809;52.432;4.780;2023-06-22T13:59:03;5.95;;;4.70;;
44145;SDS011;29809;52.432;4.780;2023-06-22T14:01:29;5.00;;;4.55;;
44145;SDS011;29809;52.432;4.780;2023-06-22T14:03:54;7.88;;;5.00;;
44145;SDS011;29809;52.432;4.780;2023-06-22T14:06:19;5.13;;;4.63;;
44145;SDS011;29809;52.432;4.780;2023-06-22T14:08:44;5.90;;;4.38;;
44145;SDS011;29809;52.432;4.780;2023-06-22T14:11:10;4.70;;;4.13;;
44145;SDS011;29809;52.432;4.780;2023-06-22T14:13:35;7.93;;;5.15;;
44145;SDS011;29809;52.432;4.780;2023-06-22T14:16:01;4.47;;;4.07;;
44145;SDS011;29809;52.432;4.780;2023-06-22T14:18:27;5.43;;;4.13;;
44145;SDS011;29809;52.432;4.780;2023-06-22T14:20:52;7.25;;;5.05;;
44145;SDS011;29809;52.432;4.780;2023-06-22T14:23:17;5.35;;;4.85;;
44145;SDS011;29809;52.432;4.780;2023-06-22T14:25:42;5.40;;;4.78;;
44145;SDS011;29809;52.432;4.780;2023-06-22T14:28:08;5.00;;;4.20;;
44145;SDS011;29809;52.432;4.780;2023-06-22T14:30:33;4.75;;;3.80;;
44145;SDS011;29809;52.432;4.780;2023-06-22T14:32:58;5.30;;;4.28;;
44145;SDS011;29809;52.432;4.780;2023-06-22T14:35:23;5.50;;;4.97;;
44145;SDS011;29809;52.432;4.780;2023-06-22T14:37:49;5.65;;;4.10;;